createdAt,value
2017-09-27T14:03:16.324Z,615
2017-09-27T14:03:56.857Z,620
2017-09-27T14:04:37.661Z,625
2017-09-27T14:05:18.028Z,620
2017-09-27T14:05:58.436Z,615
2017-09-27T14:06:39.028Z,620
2017-09-27T14:07:19.568Z,630
2017-09-27T14:08:00.059Z,630
2017-09-27T14:08:40.622Z,625
2017-09-27T14:09:21.174Z,625
2017-09-27T14:10:01.745Z,630
2017-09-27T14:12:19.667Z,635
2017-09-27T14:13:00.151Z,650
2017-09-27T14:13:40.599Z,640
2017-09-27T14:16:19.321Z,610
2017-09-27T14:16:59.767Z,600
2017-09-27T14:17:40.599Z,595
2017-09-27T14:18:21.076Z,590
2017-09-27T14:19:01.566Z,590
2017-09-27T14:19:42.056Z,585
2017-09-27T14:20:22.524Z,580
2017-09-27T14:21:03.095Z,565
2017-09-27T14:21:43.829Z,555
2017-09-27T14:22:24.382Z,555
2017-09-27T14:23:04.969Z,555
2017-09-27T14:23:45.531Z,555
2017-09-27T14:24:26.053Z,545
2017-09-27T14:25:06.554Z,535
2017-09-27T14:25:47.064Z,535
2017-09-27T14:26:27.695Z,530
2017-09-27T14:27:08.260Z,530
2017-09-27T14:29:26.579Z,495
2017-09-27T14:30:07.044Z,490
2017-09-27T14:30:47.557Z,490
2017-09-27T14:31:28.250Z,485
2017-09-27T14:32:08.708Z,470
2017-09-27T14:32:49.212Z,420
2017-09-27T14:33:29.861Z,410
2017-09-27T14:34:10.347Z,285
2017-09-27T14:34:50.807Z,280
2017-09-27T14:35:31.313Z,275
2017-09-27T14:36:11.993Z,275
2017-09-27T14:36:52.428Z,280
2017-09-27T14:37:32.909Z,330
2017-09-27T14:38:13.447Z,300
2017-09-27T14:38:54.048Z,265
2017-09-27T14:39:34.500Z,255
2017-09-27T14:40:15.151Z,305
2017-09-27T14:40:55.598Z,340
2017-09-27T14:41:36.030Z,340
2017-09-27T14:42:16.547Z,355
2017-09-27T14:42:57.008Z,350
2017-09-27T14:43:37.726Z,350
2017-09-27T14:44:18.245Z,355
2017-09-27T14:44:58.875Z,365
2017-09-27T14:45:39.530Z,370
2017-09-27T14:46:20.102Z,375
2017-09-27T14:47:01.271Z,375
2017-09-27T14:49:34.365Z,370
2017-09-27T14:52:07.909Z,370
2017-09-27T14:52:48.404Z,365
2017-09-27T14:53:28.914Z,355
2017-09-27T14:54:09.384Z,345
2017-09-27T14:54:49.896Z,345
2017-09-27T14:55:30.346Z,335
2017-09-27T14:56:10.798Z,330
2017-09-27T14:56:51.473Z,325
2017-09-27T14:57:31.956Z,325
2017-09-27T14:58:12.441Z,320
2017-09-27T14:58:52.900Z,325
2017-09-27T14:59:33.370Z,320
2017-09-27T15:00:13.815Z,315
2017-09-27T15:00:54.340Z,310
2017-09-27T15:01:34.882Z,305
2017-09-27T15:02:15.349Z,305
2017-09-27T15:02:55.899Z,305
2017-09-27T15:05:35.401Z,310
2017-09-27T15:06:15.847Z,310
2017-09-27T15:06:56.378Z,310
2017-09-27T15:07:36.824Z,315
2017-09-27T15:08:17.383Z,320
2017-09-27T15:08:57.842Z,320
2017-09-27T15:09:38.516Z,325
2017-09-27T15:10:18.908Z,310
2017-09-27T15:10:59.328Z,300
2017-09-27T15:11:39.838Z,300
2017-09-27T15:12:20.368Z,295
2017-09-27T15:13:00.850Z,305
2017-09-27T15:13:41.341Z,295
2017-09-27T15:14:21.813Z,295
2017-09-27T15:15:02.289Z,295
2017-09-27T15:15:42.769Z,290
2017-09-27T15:16:23.344Z,290
2017-09-27T15:20:37.265Z,270
2017-09-27T15:21:21.966Z,255
2017-09-27T15:22:02.365Z,250
2017-09-27T15:22:42.829Z,255
2017-09-27T15:23:23.246Z,250
2017-09-27T15:24:03.690Z,250
2017-09-27T15:24:44.148Z,245
2017-09-27T15:25:24.650Z,240
2017-09-27T15:26:05.114Z,235
2017-09-27T15:26:45.583Z,230
2017-09-27T15:29:23.726Z,215
2017-09-27T15:30:04.285Z,210
2017-09-27T15:30:44.827Z,200
2017-09-27T15:31:25.311Z,185
2017-09-27T15:32:05.809Z,165
2017-09-27T15:32:46.489Z,160
2017-09-27T15:33:27.014Z,160
2017-09-27T15:34:07.576Z,155
2017-09-27T15:34:48.090Z,155
2017-09-27T15:35:28.492Z,155
2017-09-27T15:36:09.021Z,155
2017-09-27T15:36:49.517Z,150
2017-09-27T15:37:30.123Z,150
2017-09-27T15:38:10.699Z,145
2017-09-27T15:38:51.237Z,145
2017-09-27T15:39:31.936Z,145
2017-09-27T15:40:12.551Z,140
2017-09-27T15:40:53.124Z,140
2017-09-27T15:41:33.514Z,140
2017-09-27T15:42:13.969Z,140
2017-09-27T15:42:54.478Z,140
2017-09-27T15:43:34.965Z,135
2017-09-27T15:44:15.601Z,135
2017-09-27T15:44:56.227Z,135
2017-09-27T15:45:37.113Z,130
2017-09-27T15:46:17.502Z,130
2017-09-27T15:46:57.999Z,130
2017-09-27T15:47:38.530Z,125
2017-09-27T15:48:19.703Z,125
2017-09-27T15:49:00.177Z,125
2017-09-27T15:49:40.881Z,120
2017-09-27T15:50:21.338Z,120
2017-09-27T15:51:01.902Z,120
2017-09-27T15:51:42.554Z,120
2017-09-27T15:52:23.021Z,120
2017-09-27T15:53:03.578Z,120
2017-09-27T15:53:44.037Z,115
2017-09-27T15:54:24.652Z,115
2017-09-27T15:55:05.206Z,115
2017-09-27T15:55:45.672Z,110
2017-09-27T15:56:26.134Z,110
2017-09-27T15:57:06.627Z,110
2017-09-27T15:57:47.136Z,110
2017-09-27T15:58:27.643Z,110
2017-09-27T15:59:08.246Z,110
2017-09-27T15:59:48.768Z,105
2017-09-27T16:00:29.401Z,105
2017-09-27T16:01:09.891Z,105
2017-09-27T16:01:51.105Z,100
2017-09-27T16:02:31.578Z,100
2017-09-27T16:03:12.111Z,100
2017-09-27T16:03:52.628Z,100
2017-09-27T16:04:33.152Z,95
2017-09-27T16:05:14.672Z,95
2017-09-27T16:05:55.144Z,95
2017-09-27T16:06:35.650Z,95
2017-09-27T16:07:16.213Z,95
2017-09-27T16:07:56.765Z,95
2017-09-27T16:08:37.355Z,95
2017-09-27T16:09:17.827Z,95
2017-09-27T16:09:58.386Z,95
2017-09-27T16:10:38.842Z,90
2017-09-27T16:11:19.329Z,90
2017-09-27T16:11:59.825Z,90
2017-09-27T16:12:40.307Z,90
2017-09-27T16:13:20.780Z,90
2017-09-27T16:14:01.266Z,85
2017-09-27T16:14:41.706Z,85
2017-09-27T16:15:22.314Z,85
2017-09-27T16:17:35.039Z,80
2017-09-27T16:18:15.480Z,80
2017-09-27T16:18:55.988Z,80
2017-09-27T16:19:36.474Z,80
2017-09-27T16:20:16.934Z,75
2017-09-27T16:20:57.389Z,75
2017-09-27T16:21:37.903Z,75
2017-09-27T16:24:16.165Z,70
2017-09-27T16:24:56.717Z,70
2017-09-27T16:25:37.181Z,70
2017-09-27T16:26:17.765Z,70
2017-09-27T16:26:58.208Z,65
2017-09-27T16:27:38.755Z,65
2017-09-27T16:28:19.286Z,65
2017-09-27T16:28:59.795Z,65
2017-09-27T16:29:40.280Z,60
2017-09-27T16:30:20.809Z,60
2017-09-27T16:31:01.273Z,60
2017-09-27T16:31:41.722Z,55
2017-09-27T16:32:22.212Z,55
2017-09-27T16:33:02.896Z,55
2017-09-27T16:33:43.197Z,50
2017-09-27T16:34:23.636Z,50
2017-09-27T16:35:04.086Z,45
2017-09-27T16:35:44.524Z,45
2017-09-27T16:38:18.524Z,40
2017-09-27T16:38:58.994Z,35
2017-09-27T16:39:39.435Z,35
2017-09-27T16:40:19.918Z,35
2017-09-27T16:41:00.394Z,35
2017-09-27T16:41:40.952Z,35
2017-09-27T16:42:21.450Z,30
2017-09-27T16:43:01.896Z,30
2017-09-27T16:43:42.374Z,30
2017-09-27T16:44:22.831Z,30
2017-09-27T16:45:03.243Z,30
2017-09-27T16:45:43.747Z,25
2017-09-27T16:46:24.239Z,25
2017-09-27T16:47:04.713Z,25
2017-09-27T16:47:45.196Z,25
2017-09-27T16:48:26.522Z,25
2017-09-27T16:49:07.686Z,25
2017-09-27T16:51:20.569Z,20
2017-09-27T16:52:01.923Z,20
2017-09-27T16:52:42.434Z,20
2017-09-27T16:53:22.955Z,20
2017-09-27T16:54:03.649Z,20
2017-09-27T16:54:44.289Z,20
2017-09-27T16:55:24.874Z,20
2017-09-27T16:56:05.506Z,15
2017-09-27T16:56:46.052Z,15
2017-09-27T16:57:26.453Z,15
2017-09-27T16:58:06.962Z,15
2017-09-27T16:58:47.396Z,15
2017-09-27T16:59:27.898Z,15
2017-09-27T17:00:08.346Z,15
2017-09-27T17:00:48.875Z,15
2017-09-27T17:01:29.284Z,10
2017-09-27T17:02:09.732Z,10
2017-09-27T17:02:50.268Z,10
2017-09-27T17:03:30.804Z,10
2017-09-27T17:05:59.802Z,10
2017-09-27T17:06:40.245Z,10
2017-09-27T17:07:20.673Z,10
2017-09-27T17:08:01.155Z,10
2017-09-27T17:08:41.629Z,5
2017-09-27T17:09:22.177Z,5
2017-09-27T17:10:02.644Z,5
2017-09-27T17:10:43.156Z,5
2017-09-27T17:11:23.624Z,5
2017-09-27T17:12:04.042Z,5
2017-09-27T17:12:44.530Z,5
2017-09-27T17:13:25.048Z,5
2017-09-27T17:14:05.504Z,5
2017-09-27T17:14:45.998Z,5
2017-09-27T17:15:26.522Z,5
2017-09-27T17:16:06.924Z,0
2017-09-27T17:16:47.344Z,0
2017-09-27T17:17:27.880Z,0
2017-09-27T17:18:08.336Z,0
2017-09-27T17:18:48.887Z,0
2017-09-27T17:21:19.276Z,0
2017-09-27T17:21:59.752Z,0
2017-09-27T17:22:40.224Z,0
2017-09-27T17:23:20.889Z,0
2017-09-27T17:24:01.280Z,0
2017-09-27T17:24:41.842Z,0
2017-09-27T17:25:22.407Z,0
2017-09-27T17:26:02.878Z,0
2017-09-27T17:26:43.429Z,0
2017-09-27T17:27:24.033Z,0
2017-09-27T17:28:04.560Z,0
2017-09-27T17:28:45.093Z,0
2017-09-27T17:29:25.687Z,0
2017-09-27T17:30:06.141Z,0
2017-09-27T17:30:46.610Z,0
2017-09-27T17:31:27.133Z,0
2017-09-27T17:32:07.593Z,0
2017-09-27T17:32:48.040Z,0
2017-09-27T17:33:28.521Z,0
2017-09-27T17:34:08.986Z,0
2017-09-27T17:34:49.610Z,0
2017-09-27T17:35:30.067Z,0
2017-09-27T17:36:10.499Z,0
2017-09-27T17:36:50.988Z,0
2017-09-27T17:37:31.540Z,0
2017-09-27T17:38:11.974Z,0
2017-09-27T17:38:52.416Z,0
2017-09-27T17:39:32.922Z,0
2017-09-27T17:40:13.360Z,0
2017-09-27T17:40:53.843Z,0
2017-09-27T17:41:34.310Z,0
2017-09-27T17:44:12.376Z,0
2017-09-27T17:44:52.827Z,0
2017-09-27T17:45:33.293Z,0
2017-09-27T17:46:13.821Z,0
2017-09-27T17:46:54.245Z,0
2017-09-27T17:47:34.718Z,0
2017-09-27T17:48:15.139Z,0
2017-09-27T17:48:55.624Z,0
2017-09-27T17:49:36.147Z,0
2017-09-27T17:51:53.940Z,0
2017-09-27T17:52:34.478Z,0
2017-09-27T17:53:14.919Z,0
2017-09-27T17:53:55.421Z,0
2017-09-27T17:54:35.862Z,0
2017-09-27T17:55:16.371Z,0
2017-09-27T17:55:56.772Z,0
2017-09-27T17:56:37.216Z,0
2017-09-27T17:57:17.709Z,0
2017-09-27T17:57:58.231Z,0
2017-09-27T17:58:38.705Z,0
2017-09-27T17:59:19.210Z,0
2017-09-27T18:01:52.257Z,0
2017-09-27T18:02:32.795Z,0
2017-09-27T18:03:13.260Z,0
2017-09-27T18:03:53.688Z,0
2017-09-27T18:04:34.130Z,0
2017-09-27T18:05:14.627Z,0
2017-09-27T18:05:55.119Z,0
2017-09-27T18:06:35.809Z,0
2017-09-27T18:07:16.313Z,0
2017-09-27T18:09:49.320Z,0
2017-09-27T18:10:29.776Z,0
2017-09-27T18:11:10.370Z,0
2017-09-27T18:11:50.817Z,0
2017-09-27T18:12:31.367Z,0
2017-09-27T18:13:11.903Z,0
2017-09-27T18:13:52.346Z,0
2017-09-27T18:14:32.787Z,0
2017-09-27T18:15:13.278Z,0
2017-09-27T18:17:46.281Z,0
2017-09-27T18:18:26.732Z,0
2017-09-27T18:19:07.207Z,0
2017-09-27T18:19:47.662Z,0
2017-09-27T18:20:28.109Z,0
2017-09-27T18:21:08.544Z,0
2017-09-27T18:21:49.028Z,0
2017-09-27T18:22:29.445Z,0
2017-09-27T18:23:09.890Z,0
2017-09-27T18:23:50.294Z,0
2017-09-27T18:24:30.768Z,0
2017-09-27T18:25:11.211Z,0
2017-09-27T18:25:51.700Z,0
2017-09-27T18:26:32.185Z,0
2017-09-27T18:27:12.656Z,0
2017-09-27T18:27:53.104Z,0
2017-09-27T18:28:33.544Z,0
2017-09-27T18:31:06.570Z,0
2017-09-27T18:31:46.987Z,0
2017-09-27T18:32:27.470Z,0
2017-09-27T18:33:07.900Z,0
2017-09-27T18:33:48.418Z,0
2017-09-27T18:34:28.950Z,0
2017-09-27T18:35:09.366Z,0
2017-09-27T18:35:49.763Z,0
2017-09-27T18:38:27.925Z,0
2017-09-27T18:39:08.399Z,0
2017-09-27T18:39:48.894Z,0
2017-09-27T18:40:29.431Z,0
2017-09-27T18:41:09.822Z,0
2017-09-27T18:43:22.574Z,0
2017-09-27T18:44:03.033Z,0
2017-09-27T18:44:43.552Z,0
2017-09-27T18:45:24.036Z,0
2017-09-27T18:46:04.506Z,0
2017-09-27T18:46:44.988Z,0
2017-09-27T18:47:25.465Z,0
2017-09-27T18:48:05.876Z,0
2017-09-27T18:48:46.329Z,0
2017-09-27T18:49:26.864Z,0
2017-09-27T18:50:07.332Z,0
2017-09-27T18:50:47.781Z,0
2017-09-27T18:51:28.220Z,0
2017-09-27T18:52:08.668Z,0
2017-09-27T18:52:49.890Z,0
2017-09-27T18:53:30.336Z,0
2017-09-27T18:54:10.812Z,0
2017-09-27T18:54:51.272Z,0
2017-09-27T18:55:31.732Z,0
2017-09-27T18:56:12.203Z,0
2017-09-27T18:58:40.199Z,0
2017-09-27T18:59:20.614Z,0
2017-09-27T19:00:01.077Z,0
2017-09-27T19:00:41.555Z,0
2017-09-27T19:01:21.993Z,0
2017-09-27T19:02:02.460Z,0
2017-09-27T19:02:42.896Z,0
2017-09-27T19:03:23.389Z,0
2017-09-27T19:05:41.204Z,0
2017-09-27T19:06:21.699Z,0
2017-09-27T19:07:02.234Z,0
2017-09-27T19:07:42.688Z,0
2017-09-27T19:08:23.147Z,0
2017-09-27T19:09:03.579Z,0
2017-09-27T19:09:44.077Z,0
2017-09-27T19:10:24.582Z,0
2017-09-27T19:11:04.998Z,0
2017-09-27T19:13:17.784Z,0
2017-09-27T19:13:58.326Z,0
2017-09-27T19:14:38.841Z,0
2017-09-27T19:15:19.319Z,0
2017-09-27T19:15:59.717Z,0
2017-09-27T19:16:40.183Z,0
2017-09-27T19:17:20.623Z,0
2017-09-27T19:18:01.129Z,0
2017-09-27T19:18:41.625Z,0
2017-09-27T19:19:22.049Z,0
2017-09-27T19:20:02.468Z,0
2017-09-27T19:20:42.954Z,0
2017-09-27T19:21:23.433Z,0
2017-09-27T19:22:03.910Z,0
2017-09-27T19:22:44.359Z,0
2017-09-27T19:23:24.800Z,0
2017-09-27T19:24:05.272Z,0
2017-09-27T19:24:45.751Z,0
2017-09-27T19:25:26.206Z,0
2017-09-27T19:26:06.658Z,0
2017-09-27T19:28:44.810Z,0
2017-09-27T19:29:25.288Z,0
2017-09-27T19:30:05.694Z,0
2017-09-27T19:30:46.174Z,0
2017-09-27T19:31:26.654Z,0
2017-09-27T19:32:07.169Z,0
2017-09-27T19:32:47.584Z,0
2017-09-27T19:33:28.108Z,0
2017-09-27T19:34:08.490Z,0
2017-09-27T19:34:48.966Z,0
2017-09-27T19:35:29.474Z,0
2017-09-27T19:36:09.969Z,0
2017-09-27T19:36:50.517Z,0
2017-09-27T19:37:30.940Z,0
2017-09-27T19:38:11.458Z,0
2017-09-27T19:38:51.905Z,0
2017-09-27T19:39:32.376Z,0
2017-09-27T19:40:12.821Z,0
2017-09-27T19:42:30.735Z,0
2017-09-27T19:43:11.160Z,0
2017-09-27T19:43:51.609Z,0
2017-09-27T19:44:32.067Z,0
2017-09-27T19:45:12.605Z,0
2017-09-27T19:45:53.162Z,0
2017-09-27T19:46:33.645Z,0
2017-09-27T19:47:14.113Z,0
2017-09-27T19:47:54.586Z,0
2017-09-27T19:48:35.067Z,0
2017-09-27T19:49:15.490Z,0
2017-09-27T19:51:48.613Z,0
2017-09-27T19:52:29.110Z,0
2017-09-27T19:53:09.522Z,0
2017-09-27T19:53:49.959Z,0
2017-09-27T19:54:30.464Z,0
2017-09-27T19:55:10.985Z,0
2017-09-27T19:55:51.377Z,0
2017-09-27T19:56:31.883Z,0
2017-09-27T19:57:12.336Z,0
2017-09-27T19:57:52.791Z,0
2017-09-27T20:00:05.626Z,0
2017-09-27T20:00:46.167Z,0
2017-09-27T20:01:26.643Z,0
2017-09-27T20:02:07.104Z,0
2017-09-27T20:02:47.620Z,0
2017-09-27T20:03:28.095Z,0
2017-09-27T20:04:08.602Z,0
2017-09-27T20:04:49.163Z,0
2017-09-27T20:05:29.627Z,0
2017-09-27T20:06:10.103Z,0
2017-09-27T20:06:50.562Z,0
2017-09-27T20:09:23.653Z,0
2017-09-27T20:10:04.128Z,0
2017-09-27T20:10:44.608Z,0
2017-09-27T20:11:25.059Z,0
2017-09-27T20:12:05.534Z,0
2017-09-27T20:12:45.973Z,0
2017-09-27T20:13:26.421Z,0
2017-09-27T20:14:06.973Z,0
2017-09-27T20:14:47.336Z,0
2017-09-27T20:15:27.814Z,0
2017-09-27T20:16:08.276Z,0
2017-09-27T20:16:48.727Z,0
2017-09-27T20:17:29.198Z,0
2017-09-27T20:18:09.742Z,0
2017-09-27T20:18:50.208Z,0
2017-09-27T20:19:30.661Z,0
2017-09-27T20:21:43.446Z,0
2017-09-27T20:22:23.925Z,0
2017-09-27T20:23:04.438Z,0
2017-09-27T20:23:45.281Z,0
2017-09-27T20:24:25.750Z,0
2017-09-27T20:25:06.213Z,0
2017-09-27T20:25:47.490Z,0
2017-09-27T20:28:25.595Z,0
2017-09-27T20:29:06.054Z,0
2017-09-27T20:29:46.555Z,0
2017-09-27T20:30:27.054Z,0
2017-09-27T20:31:07.769Z,0
2017-09-27T20:31:47.991Z,0
2017-09-27T20:32:28.437Z,0
2017-09-27T20:33:08.919Z,0
2017-09-27T20:35:21.632Z,0
2017-09-27T20:36:02.112Z,0
2017-09-27T20:36:42.605Z,0
2017-09-27T20:37:23.130Z,0
2017-09-27T20:38:03.745Z,0
2017-09-27T20:40:36.772Z,0
2017-09-27T20:41:17.284Z,0
2017-09-27T20:41:57.704Z,0
2017-09-27T20:42:38.168Z,0
2017-09-27T20:43:18.629Z,0
2017-09-27T20:43:59.056Z,0
2017-09-27T20:44:39.519Z,0
2017-09-27T20:45:20.018Z,0
2017-09-27T20:46:00.510Z,0
2017-09-27T20:46:40.968Z,0
2017-09-27T20:47:21.426Z,0
2017-09-27T20:48:01.869Z,0
2017-09-27T20:48:42.345Z,0
2017-09-27T20:49:22.819Z,0
2017-09-27T20:50:03.276Z,0
2017-09-27T20:50:43.800Z,0
2017-09-27T20:51:24.342Z,0
2017-09-27T20:52:04.836Z,0
2017-09-27T20:52:45.271Z,0
2017-09-27T20:53:25.768Z,0
2017-09-27T20:56:03.879Z,0
2017-09-27T20:56:44.377Z,0
2017-09-27T20:57:24.880Z,0
2017-09-27T20:58:05.355Z,0
2017-09-27T20:58:45.813Z,0
2017-09-27T21:00:58.689Z,0
2017-09-27T21:01:39.305Z,0
2017-09-27T21:02:19.576Z,0
2017-09-27T21:03:00.050Z,0
2017-09-27T21:03:40.515Z,0
2017-09-27T21:04:21.036Z,0
2017-09-27T21:05:01.515Z,0
2017-09-27T21:05:41.994Z,0
2017-09-27T21:06:22.463Z,0
2017-09-27T21:07:02.900Z,0
2017-09-27T21:07:43.375Z,0
2017-09-27T21:09:56.133Z,0
2017-09-27T21:10:36.637Z,0
2017-09-27T21:11:17.136Z,0
2017-09-27T21:11:57.567Z,0
2017-09-27T21:12:38.045Z,0
2017-09-27T21:13:18.546Z,0
2017-09-27T21:13:59.898Z,0
2017-09-27T21:14:40.349Z,0
2017-09-27T21:15:20.817Z,0
2017-09-27T21:16:01.255Z,0
2017-09-27T21:18:13.961Z,0
2017-09-27T21:18:54.469Z,0
2017-09-27T21:19:35.142Z,0
2017-09-27T21:20:15.655Z,0
2017-09-27T21:20:56.146Z,0
2017-09-27T21:21:36.643Z,0
2017-09-27T21:22:17.175Z,0
2017-09-27T21:22:57.663Z,0
2017-09-27T21:23:38.155Z,0
2017-09-27T21:24:18.624Z,0
2017-09-27T21:24:59.149Z,0
2017-09-27T21:25:39.632Z,0
2017-09-27T21:26:20.158Z,0
2017-09-27T21:27:00.652Z,0
2017-09-27T21:27:41.102Z,0
2017-09-27T21:28:21.535Z,0
2017-09-27T21:29:02.024Z,0
2017-09-27T21:29:42.487Z,0
2017-09-27T21:30:38.833Z,0
2017-09-27T21:31:18.397Z,0
2017-09-27T21:31:58.904Z,0
2017-09-27T21:34:37.057Z,0
2017-09-27T21:35:17.437Z,0
2017-09-27T21:35:57.911Z,0
2017-09-27T21:38:30.989Z,0
2017-09-27T21:39:11.400Z,0
2017-09-27T21:39:51.844Z,0
2017-09-27T21:40:32.300Z,0
2017-09-27T21:41:12.772Z,0
2017-09-27T21:41:53.212Z,0
2017-09-27T21:42:33.716Z,0
2017-09-27T21:45:01.716Z,0
2017-09-27T21:45:42.160Z,0
2017-09-27T21:46:22.657Z,0
2017-09-27T21:47:03.125Z,0
2017-09-27T21:47:43.569Z,0
2017-09-27T21:48:23.986Z,0
2017-09-27T21:49:04.482Z,0
2017-09-27T21:49:45.037Z,0
2017-09-27T21:50:25.461Z,0
2017-09-27T21:51:05.955Z,0
2017-09-27T21:53:33.933Z,0
2017-09-27T21:54:14.412Z,0
2017-09-27T21:54:54.881Z,0
2017-09-27T21:55:35.570Z,0
2017-09-27T21:56:15.807Z,0
2017-09-27T21:56:56.270Z,0
2017-09-27T21:57:36.705Z,0
2017-09-27T21:58:17.136Z,0
2017-09-27T21:58:57.596Z,0
2017-09-27T22:01:35.772Z,0
2017-09-27T22:02:16.251Z,0
2017-09-27T22:02:56.728Z,0
2017-09-27T22:03:37.215Z,0
2017-09-27T22:05:55.004Z,0
2017-09-27T22:06:35.438Z,0
2017-09-27T22:07:15.927Z,0
2017-09-27T22:07:56.410Z,0
2017-09-27T22:08:36.875Z,0
2017-09-27T22:09:17.309Z,0
2017-09-27T22:09:57.801Z,0
2017-09-27T22:10:38.269Z,0
2017-09-27T22:11:18.717Z,0
2017-09-27T22:11:59.189Z,0
2017-09-27T22:12:39.637Z,0
2017-09-27T22:13:20.258Z,0
2017-09-27T22:14:01.456Z,0
2017-09-27T22:14:41.916Z,0
2017-09-27T22:15:22.402Z,0
2017-09-27T22:16:02.854Z,0
2017-09-27T22:16:43.498Z,0
2017-09-27T22:17:23.888Z,0
2017-09-27T22:18:04.354Z,0
2017-09-27T22:18:44.783Z,0
2017-09-27T22:19:25.260Z,0
2017-09-27T22:20:05.717Z,0
2017-09-27T22:20:46.185Z,0
2017-09-27T22:21:26.624Z,0
2017-09-27T22:22:07.086Z,0
2017-09-27T22:22:48.535Z,0
2017-09-27T22:23:28.999Z,0
2017-09-27T22:24:09.466Z,0
2017-09-27T22:24:49.911Z,0
2017-09-27T22:25:30.414Z,0
2017-09-27T22:26:10.861Z,0
2017-09-27T22:26:51.326Z,0
2017-09-27T22:27:31.787Z,0
2017-09-27T22:28:12.301Z,0
2017-09-27T22:28:52.849Z,0
2017-09-27T22:29:33.267Z,0
2017-09-27T22:30:13.725Z,0
2017-09-27T22:30:54.233Z,0
2017-09-27T22:31:34.631Z,0
2017-09-27T22:32:15.122Z,0
2017-09-27T22:32:55.554Z,0
2017-09-27T22:33:36.177Z,0
2017-09-27T22:34:16.637Z,0
2017-09-27T22:34:57.088Z,0
2017-09-27T22:35:37.562Z,0
2017-09-27T22:36:18.003Z,0
2017-09-27T22:36:58.549Z,0
2017-09-27T22:37:38.972Z,0
2017-09-27T22:38:19.471Z,0
2017-09-27T22:38:59.935Z,0
2017-09-27T22:39:40.409Z,0
2017-09-27T22:40:20.859Z,0
2017-09-27T22:41:01.358Z,0
2017-09-27T22:41:41.841Z,0
2017-09-27T22:42:22.368Z,0
2017-09-27T22:43:02.833Z,0
2017-09-27T22:43:43.289Z,0
2017-09-27T22:44:23.756Z,0
2017-09-27T22:45:04.243Z,0
2017-09-27T22:45:44.730Z,0
2017-09-27T22:46:25.189Z,0
2017-09-27T22:47:05.645Z,0
2017-09-27T22:47:46.103Z,0
2017-09-27T22:48:26.651Z,0
2017-09-27T22:49:07.166Z,0
2017-09-27T22:49:47.495Z,0
2017-09-27T22:50:28.126Z,0
2017-09-27T22:51:08.600Z,0
2017-09-27T22:51:49.063Z,0
2017-09-27T22:52:29.694Z,0
2017-09-27T22:53:10.013Z,0
2017-09-27T22:53:50.827Z,0
2017-09-27T22:54:31.472Z,0
2017-09-27T22:55:11.905Z,0
2017-09-27T22:55:52.344Z,0
2017-09-27T22:56:32.795Z,0
2017-09-27T22:57:13.303Z,0
2017-09-27T22:57:53.727Z,0
2017-09-27T22:58:34.186Z,0
2017-09-27T22:59:14.654Z,0
2017-09-27T22:59:55.156Z,0
2017-09-27T23:00:35.576Z,0
2017-09-27T23:01:16.018Z,0
2017-09-27T23:01:56.467Z,0
2017-09-27T23:02:37.019Z,0
2017-09-27T23:03:17.436Z,0
2017-09-27T23:03:57.860Z,0
2017-09-27T23:04:38.305Z,0
2017-09-27T23:05:18.779Z,0
2017-09-27T23:05:59.258Z,0
2017-09-27T23:06:39.693Z,0
2017-09-27T23:07:20.179Z,0
2017-09-27T23:08:00.594Z,0
2017-09-27T23:08:41.043Z,0
2017-09-27T23:11:09.166Z,0
2017-09-27T23:11:49.687Z,0
2017-09-27T23:12:30.060Z,0
2017-09-27T23:13:10.510Z,0
2017-09-27T23:13:50.978Z,0
2017-09-27T23:14:31.431Z,0
2017-09-27T23:15:11.913Z,0
2017-09-27T23:15:52.428Z,0
2017-09-27T23:16:32.935Z,0
2017-09-27T23:17:13.358Z,0
2017-09-27T23:17:53.838Z,0
2017-09-27T23:18:34.279Z,0
2017-09-27T23:19:14.709Z,0
2017-09-27T23:19:55.188Z,0
2017-09-27T23:20:35.621Z,0
2017-09-27T23:21:16.102Z,0
2017-09-27T23:21:56.548Z,0
2017-09-27T23:22:37.014Z,0
2017-09-27T23:23:17.478Z,0
2017-09-27T23:23:57.928Z,0
2017-09-27T23:24:38.387Z,0
2017-09-27T23:25:18.841Z,0
2017-09-27T23:25:59.284Z,0
2017-09-27T23:26:39.771Z,0
2017-09-27T23:27:20.170Z,0
2017-09-27T23:28:00.628Z,0
2017-09-27T23:28:41.087Z,0
2017-09-27T23:29:21.539Z,0
2017-09-27T23:30:01.979Z,0
2017-09-27T23:30:42.470Z,0
2017-09-27T23:31:22.910Z,0
2017-09-27T23:32:03.379Z,0
2017-09-27T23:32:43.801Z,0
2017-09-27T23:33:24.266Z,0
2017-09-27T23:34:04.714Z,0
2017-09-27T23:34:45.213Z,0
2017-09-27T23:35:25.652Z,0
2017-09-27T23:36:06.133Z,0
2017-09-27T23:38:39.240Z,0
2017-09-27T23:39:19.737Z,0
2017-09-27T23:40:00.218Z,0
2017-09-27T23:40:40.702Z,0
2017-09-27T23:41:21.192Z,0
2017-09-27T23:43:39.011Z,0
2017-09-27T23:44:19.503Z,0
2017-09-27T23:44:59.971Z,0
2017-09-27T23:45:40.449Z,0
2017-09-27T23:46:20.925Z,0
2017-09-27T23:47:01.421Z,0
2017-09-27T23:47:41.916Z,0
2017-09-27T23:48:22.402Z,0
2017-09-27T23:49:02.908Z,0
2017-09-27T23:49:43.405Z,0
2017-09-27T23:50:23.880Z,0
2017-09-27T23:51:04.388Z,0
2017-09-27T23:51:44.857Z,0
2017-09-27T23:52:25.317Z,0
2017-09-27T23:53:05.807Z,0
2017-09-27T23:53:46.273Z,0
2017-09-27T23:54:26.747Z,0
2017-09-27T23:55:07.274Z,0
2017-09-27T23:55:47.737Z,0
2017-09-27T23:56:28.235Z,0
2017-09-27T23:57:08.803Z,0
2017-09-27T23:57:50.478Z,0
2017-09-27T23:58:30.903Z,0
2017-09-27T23:59:11.339Z,0
2017-09-27T23:59:51.777Z,0
